createdAt,value
2019-05-26T00:01:04.108Z,6.90
2019-05-26T00:03:34.683Z,6.90
2019-05-26T00:06:05.181Z,6.90
2019-05-26T00:08:35.756Z,7.00
2019-05-26T00:11:06.254Z,7.00
2019-05-26T00:13:36.695Z,7.10
2019-05-26T00:16:07.107Z,7.10
2019-05-26T00:18:37.628Z,7.10
2019-05-26T00:21:08.183Z,7.20
2019-05-26T00:23:39.740Z,7.20
2019-05-26T00:26:10.240Z,7.30
2019-05-26T00:28:40.655Z,7.40
2019-05-26T00:31:11.060Z,7.40
2019-05-26T00:33:41.600Z,7.40
2019-05-26T00:36:12.102Z,7.40
2019-05-26T00:38:42.965Z,7.30
2019-05-26T00:41:13.390Z,7.20
2019-05-26T00:43:43.791Z,7.20
2019-05-26T00:46:14.326Z,7.20
2019-05-26T00:48:44.713Z,7.10
2019-05-26T00:51:15.060Z,7.10
2019-05-26T00:53:45.521Z,7.10
2019-05-26T00:56:15.968Z,7.10
2019-05-26T00:58:47.974Z,7.10
2019-05-26T01:01:18.442Z,7.10
2019-05-26T01:03:48.900Z,7.00
2019-05-26T01:06:19.228Z,7.00
2019-05-26T01:08:49.568Z,7.00
2019-05-26T01:11:56.576Z,7.10
2019-05-26T01:14:26.898Z,7.00
2019-05-26T01:19:53.332Z,7.00
2019-05-26T01:22:23.522Z,6.90
2019-05-26T01:24:53.896Z,7.00
2019-05-26T01:27:24.217Z,7.00
2019-05-26T01:29:54.811Z,7.00
2019-05-26T01:32:25.252Z,7.00
2019-05-26T01:34:58.615Z,6.90
2019-05-26T01:37:29.058Z,6.90
2019-05-26T01:39:59.542Z,6.90
2019-05-26T01:42:29.920Z,6.90
2019-05-26T01:45:00.258Z,6.90
2019-05-26T01:47:30.790Z,7.00
2019-05-26T01:53:25.240Z,6.90
2019-05-26T01:55:55.747Z,6.80
2019-05-26T01:58:26.203Z,6.80
2019-05-26T02:00:56.662Z,6.70
2019-05-26T02:03:27.208Z,6.60
2019-05-26T02:05:57.737Z,6.50
2019-05-26T02:08:38.831Z,6.40
2019-05-26T02:11:01.700Z,6.50
2019-05-26T02:13:32.083Z,6.40
2019-05-26T02:16:02.440Z,6.30
2019-05-26T02:18:33.241Z,6.30
2019-05-26T02:21:03.618Z,6.20
2019-05-26T02:23:33.982Z,6.10
2019-05-26T02:26:04.687Z,6.10
2019-05-26T02:28:35.087Z,6.00
2019-05-26T02:31:05.484Z,6.00
2019-05-26T02:33:35.915Z,5.90
2019-05-26T02:36:06.315Z,5.80
2019-05-26T02:38:36.687Z,5.80
2019-05-26T02:41:07.101Z,5.80
2019-05-26T02:43:37.522Z,5.80
2019-05-26T02:46:57.741Z,5.80
2019-05-26T02:49:28.172Z,5.80
2019-05-26T02:51:58.517Z,5.80
2019-05-26T02:54:28.934Z,5.80
2019-05-26T02:56:59.464Z,5.80
2019-05-26T02:59:29.916Z,5.90
2019-05-26T03:02:03.730Z,5.90
2019-05-26T03:04:32.592Z,5.90
2019-05-26T03:07:05.127Z,5.90
2019-05-26T03:09:37.201Z,5.90
2019-05-26T03:12:07.624Z,5.90
2019-05-26T03:14:41.390Z,5.90
2019-05-26T03:17:11.840Z,5.90
2019-05-26T03:19:43.917Z,6.00
2019-05-26T03:22:17.103Z,6.00
2019-05-26T03:24:49.732Z,6.00
2019-05-26T03:27:20.647Z,6.00
2019-05-26T03:29:51.219Z,6.00
2019-05-26T03:32:21.843Z,6.10
2019-05-26T03:34:52.224Z,6.00
2019-05-26T03:37:22.635Z,6.10
2019-05-26T03:39:53.054Z,6.10
2019-05-26T03:42:23.606Z,6.10
2019-05-26T03:44:54.109Z,6.10
2019-05-26T03:47:24.604Z,6.10
2019-05-26T03:49:55.182Z,6.10
2019-05-26T03:52:25.667Z,6.10
2019-05-26T03:54:56.089Z,6.10
2019-05-26T03:57:26.546Z,6.00
2019-05-26T03:59:57.073Z,6.00
2019-05-26T04:02:27.472Z,6.00
2019-05-26T04:04:57.971Z,6.10
2019-05-26T04:07:28.391Z,6.10
2019-05-26T04:10:05.189Z,6.10
2019-05-26T04:12:31.299Z,6.10
2019-05-26T04:15:01.673Z,6.20
2019-05-26T04:17:32.222Z,6.10
2019-05-26T04:20:02.751Z,6.20
2019-05-26T04:22:33.291Z,6.10
2019-05-26T04:25:03.872Z,6.20
2019-05-26T04:27:34.331Z,6.20
2019-05-26T04:30:05.950Z,6.20
2019-05-26T04:32:36.489Z,6.20
2019-05-26T04:35:07.366Z,6.20
2019-05-26T04:37:37.826Z,6.30
2019-05-26T04:40:25.656Z,6.30
2019-05-26T04:42:40.784Z,6.30
2019-05-26T04:45:11.468Z,6.30
2019-05-26T04:47:41.794Z,6.30
2019-05-26T04:50:12.283Z,6.40
2019-05-26T04:53:02.022Z,6.50
2019-05-26T04:55:14.632Z,6.60
2019-05-26T04:57:44.952Z,6.90
2019-05-26T05:00:17.264Z,7.20
2019-05-26T05:02:47.644Z,7.30
2019-05-26T05:05:19.658Z,7.60
2019-05-26T05:07:50.032Z,7.80
2019-05-26T05:10:20.463Z,7.80
2019-05-26T05:12:50.772Z,7.90
2019-05-26T05:15:21.304Z,8.10
2019-05-26T05:17:51.733Z,8.20
2019-05-26T05:20:22.122Z,8.30
2019-05-26T05:23:01.342Z,8.60
2019-05-26T05:25:31.773Z,9.00
2019-05-26T05:28:02.229Z,9.50
2019-05-26T05:30:32.626Z,10.00
2019-05-26T05:33:03.081Z,10.50
2019-05-26T05:35:33.472Z,11.20
2019-05-26T05:38:03.984Z,11.80
2019-05-26T05:40:34.717Z,12.20
2019-05-26T05:43:05.274Z,12.80
2019-05-26T05:45:35.677Z,12.90
2019-05-26T05:48:06.257Z,12.70
2019-05-26T05:50:39.357Z,13.30
2019-05-26T05:53:09.762Z,13.40
2019-05-26T05:55:40.236Z,13.30
2019-05-26T05:58:10.673Z,13.50
2019-05-26T06:00:41.175Z,13.30
2019-05-26T06:03:11.511Z,13.50
2019-05-26T06:05:41.882Z,13.40
2019-05-26T06:08:12.264Z,13.50
2019-05-26T06:10:42.652Z,13.40
2019-05-26T06:13:13.346Z,13.80
2019-05-26T06:15:43.714Z,13.90
2019-05-26T06:18:14.094Z,14.20
2019-05-26T06:20:44.503Z,14.50
2019-05-26T06:23:15.012Z,15.10
2019-05-26T06:25:45.433Z,15.50
2019-05-26T06:28:15.880Z,16.20
2019-05-26T06:30:46.236Z,15.90
2019-05-26T06:33:16.609Z,15.60
2019-05-26T06:35:47.101Z,15.80
2019-05-26T06:38:17.590Z,16.00
2019-05-26T06:40:48.017Z,16.30
2019-05-26T06:43:18.585Z,16.10
2019-05-26T06:46:00.488Z,16.20
2019-05-26T06:48:31.041Z,16.30
2019-05-26T06:51:03.397Z,16.60
2019-05-26T06:53:37.332Z,17.00
2019-05-26T06:56:06.279Z,16.90
2019-05-26T06:58:45.694Z,17.00
2019-05-26T07:01:17.798Z,17.00
2019-05-26T07:03:51.031Z,17.40
2019-05-26T07:06:21.599Z,17.70
2019-05-26T07:08:54.087Z,18.00
2019-05-26T07:11:24.785Z,18.00
2019-05-26T07:13:55.132Z,18.30
2019-05-26T07:16:37.555Z,18.20
2019-05-26T07:18:58.798Z,18.60
2019-05-26T07:21:29.461Z,18.80
2019-05-26T07:24:00.053Z,18.70
2019-05-26T07:26:30.633Z,18.80
2019-05-26T07:29:01.134Z,19.10
2019-05-26T07:31:31.573Z,19.20
2019-05-26T07:34:02.030Z,19.40
2019-05-26T07:36:32.549Z,20.00
2019-05-26T07:39:02.973Z,20.20
2019-05-26T07:41:40.652Z,20.20
2019-05-26T07:44:09.961Z,20.10
2019-05-26T07:46:40.432Z,20.50
2019-05-26T07:49:14.275Z,21.30
2019-05-26T07:51:49.222Z,21.60
2019-05-26T07:54:25.531Z,21.90
2019-05-26T07:56:57.977Z,21.70
2019-05-26T07:59:28.793Z,21.90
2019-05-26T08:02:00.547Z,22.10
2019-05-26T08:04:31.119Z,21.10
2019-05-26T08:07:02.572Z,20.90
2019-05-26T08:09:33.049Z,21.60
2019-05-26T08:12:03.634Z,21.90
2019-05-26T08:14:34.077Z,21.90
2019-05-26T08:17:04.723Z,22.00
2019-05-26T08:19:35.223Z,21.70
2019-05-26T08:22:05.825Z,21.00
2019-05-26T08:24:36.359Z,20.20
2019-05-26T08:27:06.847Z,19.90
2019-05-26T08:29:37.258Z,19.90
2019-05-26T08:32:08.159Z,19.40
2019-05-26T08:34:38.593Z,18.30
2019-05-26T08:37:09.087Z,17.90
2019-05-26T08:39:40.363Z,17.90
2019-05-26T08:42:26.376Z,17.80
2019-05-26T08:44:52.984Z,17.80
2019-05-26T09:00:29.899Z,17.10
2019-05-26T09:03:04.403Z,17.10
2019-05-26T09:05:36.512Z,17.20
2019-05-26T09:08:08.336Z,17.20
2019-05-26T09:10:39.030Z,17.10
2019-05-26T09:13:09.422Z,17.20
2019-05-26T09:15:39.942Z,17.20
2019-05-26T09:18:10.377Z,17.10
2019-05-26T09:20:40.783Z,17.10
2019-05-26T09:23:11.207Z,17.10
2019-05-26T09:25:41.707Z,17.10
2019-05-26T09:28:12.822Z,17.30
2019-05-26T09:30:43.303Z,17.30
2019-05-26T09:36:27.081Z,17.50
2019-05-26T09:38:59.139Z,17.60
2019-05-26T09:41:29.537Z,17.80
2019-05-26T09:44:00.932Z,17.80
2019-05-26T09:46:31.479Z,18.00
2019-05-26T09:49:01.993Z,18.10
2019-05-26T09:51:32.454Z,18.40
2019-05-26T09:54:02.880Z,18.50
2019-05-26T09:56:33.324Z,18.50
2019-05-26T09:59:03.878Z,18.40
2019-05-26T10:01:34.267Z,18.50
2019-05-26T10:04:04.986Z,18.20
2019-05-26T10:06:35.440Z,18.00
2019-05-26T10:09:08.219Z,17.80
2019-05-26T10:11:38.745Z,17.70
2019-05-26T10:14:09.136Z,17.90
2019-05-26T10:16:39.702Z,18.00
2019-05-26T10:19:10.159Z,18.30
2019-05-26T10:21:40.467Z,19.60
2019-05-26T10:24:10.815Z,19.20
2019-05-26T10:26:41.198Z,19.10
2019-05-26T10:29:11.582Z,18.80
2019-05-26T10:31:41.999Z,18.60
2019-05-26T10:34:13.810Z,18.50
2019-05-26T10:36:44.596Z,18.60
2019-05-26T10:39:15.137Z,18.60
2019-05-26T10:41:45.872Z,18.70
2019-05-26T10:44:16.287Z,18.50
2019-05-26T10:46:46.844Z,18.50
2019-05-26T10:49:17.455Z,18.50
2019-05-26T10:51:47.962Z,18.40
2019-05-26T10:54:18.343Z,18.20
2019-05-26T10:56:51.994Z,18.20
2019-05-26T10:59:22.644Z,18.10
2019-05-26T11:01:53.064Z,17.60
2019-05-26T11:04:23.440Z,17.10
2019-05-26T11:06:54.083Z,16.90
2019-05-26T11:09:24.637Z,16.80
2019-05-26T11:11:54.994Z,16.80
2019-05-26T11:14:25.462Z,16.80
2019-05-26T11:16:55.878Z,16.90
2019-05-26T11:19:26.388Z,16.80
2019-05-26T11:21:56.767Z,16.90
2019-05-26T11:24:27.258Z,16.90
2019-05-26T11:27:08.140Z,17.10
2019-05-26T11:29:29.893Z,17.10
2019-05-26T11:32:00.419Z,17.20
2019-05-26T11:34:30.915Z,17.40
2019-05-26T11:37:01.350Z,17.60
2019-05-26T11:39:32.722Z,17.70
2019-05-26T11:42:12.764Z,17.90
2019-05-26T11:44:35.308Z,18.00
2019-05-26T11:47:05.957Z,18.10
2019-05-26T11:49:36.477Z,18.10
2019-05-26T11:52:07.001Z,18.20
2019-05-26T11:54:37.525Z,18.40
2019-05-26T11:57:08.100Z,18.80
2019-05-26T11:59:38.646Z,19.10
2019-05-26T12:02:09.138Z,19.20
2019-05-26T12:07:52.290Z,19.40
2019-05-26T12:10:22.813Z,19.10
2019-05-26T12:12:53.214Z,18.80
2019-05-26T12:15:23.857Z,19.00
2019-05-26T12:17:54.373Z,18.80
2019-05-26T12:20:24.813Z,18.90
2019-05-26T12:22:56.248Z,18.80
2019-05-26T12:25:27.199Z,18.80
2019-05-26T12:27:59.567Z,18.70
2019-05-26T12:30:30.000Z,19.00
2019-05-26T12:33:00.466Z,19.00
2019-05-26T12:35:45.510Z,19.10
2019-05-26T12:38:16.450Z,19.40
2019-05-26T12:40:47.050Z,19.50
2019-05-26T12:43:17.777Z,19.30
2019-05-26T12:45:48.383Z,19.10
2019-05-26T12:51:29.388Z,18.40
2019-05-26T12:53:59.879Z,18.50
2019-05-26T12:56:30.373Z,18.50
2019-05-26T12:59:00.871Z,18.50
2019-05-26T13:01:31.406Z,18.60
2019-05-26T13:04:01.890Z,18.70
2019-05-26T13:06:32.350Z,18.70
2019-05-26T13:09:02.899Z,18.80
2019-05-26T13:11:33.395Z,18.30
2019-05-26T13:14:04.050Z,18.50
2019-05-26T13:16:35.889Z,18.60
2019-05-26T13:19:06.827Z,18.50
2019-05-26T13:21:37.360Z,18.60
2019-05-26T13:24:08.165Z,18.70
2019-05-26T13:26:39.334Z,18.70
2019-05-26T13:29:09.808Z,18.70
2019-05-26T13:31:40.322Z,18.90
2019-05-26T13:34:11.195Z,19.10
2019-05-26T13:36:41.665Z,19.20
2019-05-26T13:39:12.211Z,19.20
2019-05-26T13:41:42.778Z,19.30
2019-05-26T13:44:13.299Z,19.20
2019-05-26T13:46:43.788Z,19.10
2019-05-26T13:49:14.233Z,19.10
2019-05-26T13:51:44.725Z,19.30
2019-05-26T13:54:15.501Z,19.40
2019-05-26T13:56:45.963Z,19.40
2019-05-26T13:59:16.377Z,19.30
2019-05-26T14:01:46.830Z,19.20
2019-05-26T14:04:17.348Z,19.00
2019-05-26T14:06:47.870Z,19.00
2019-05-26T14:09:18.248Z,19.00
2019-05-26T14:11:48.883Z,18.70
2019-05-26T14:14:19.368Z,19.00
2019-05-26T14:17:01.782Z,19.20
2019-05-26T14:19:33.830Z,19.20
2019-05-26T14:22:04.287Z,19.30
2019-05-26T14:24:34.615Z,19.20
2019-05-26T14:27:05.100Z,19.10
2019-05-26T14:29:35.624Z,19.20
2019-05-26T14:32:06.063Z,19.30
2019-05-26T14:34:36.478Z,18.90
2019-05-26T14:37:07.080Z,19.10
2019-05-26T14:39:37.755Z,19.10
2019-05-26T14:42:08.365Z,19.10
2019-05-26T14:44:38.832Z,19.20
2019-05-26T14:47:09.417Z,19.00
2019-05-26T14:49:39.978Z,19.00
2019-05-26T14:52:10.479Z,19.10
2019-05-26T14:54:40.964Z,18.90
2019-05-26T14:57:11.468Z,18.80
2019-05-26T14:59:41.909Z,18.50
2019-05-26T15:02:12.405Z,18.00
2019-05-26T15:04:42.908Z,18.00
2019-05-26T15:07:13.411Z,18.10
2019-05-26T15:09:43.890Z,18.00
2019-05-26T15:12:14.424Z,18.00
2019-05-26T15:14:44.685Z,18.30
2019-05-26T15:17:15.110Z,18.50
2019-05-26T15:19:45.618Z,18.70
2019-05-26T15:22:16.084Z,18.80
2019-05-26T15:24:46.557Z,18.70
2019-05-26T15:27:17.034Z,18.60
2019-05-26T15:29:59.861Z,18.80
2019-05-26T15:32:30.366Z,18.60
2019-05-26T15:35:00.887Z,18.20
2019-05-26T15:37:35.104Z,18.50
2019-05-26T15:40:07.158Z,18.30
2019-05-26T15:42:37.613Z,18.30
2019-05-26T15:45:08.541Z,18.20
2019-05-26T15:47:39.276Z,18.20
2019-05-26T15:50:13.473Z,18.20
2019-05-26T15:52:42.381Z,18.30
2019-05-26T15:55:13.294Z,18.40
2019-05-26T15:57:43.939Z,18.60
2019-05-26T16:00:14.635Z,18.40
2019-05-26T16:02:45.047Z,18.50
2019-05-26T16:05:15.939Z,18.40
2019-05-26T16:07:46.386Z,18.40
2019-05-26T16:10:17.364Z,18.20
2019-05-26T16:12:48.235Z,18.10
2019-05-26T16:15:19.706Z,17.90
2019-05-26T16:17:50.186Z,17.90
2019-05-26T16:20:20.800Z,17.80
2019-05-26T16:23:00.820Z,17.70
2019-05-26T16:25:31.373Z,17.50
2019-05-26T16:28:01.857Z,17.40
2019-05-26T16:30:32.357Z,17.50
2019-05-26T16:33:03.147Z,17.50
2019-05-26T16:35:33.773Z,17.60
2019-05-26T16:38:04.208Z,17.50
2019-05-26T16:40:34.661Z,17.40
2019-05-26T16:43:58.811Z,17.40
2019-05-26T16:46:29.600Z,17.30
2019-05-26T16:49:00.109Z,17.20
2019-05-26T16:51:30.594Z,17.10
2019-05-26T16:54:01.101Z,17.00
2019-05-26T16:56:31.659Z,16.90
2019-05-26T16:59:02.135Z,16.90
2019-05-26T17:01:32.654Z,16.80
2019-05-26T17:04:04.550Z,16.80
2019-05-26T17:06:35.099Z,16.80
2019-05-26T17:09:07.775Z,16.80
2019-05-26T17:11:38.442Z,16.80
2019-05-26T17:14:08.892Z,16.80
2019-05-26T17:16:39.566Z,16.60
2019-05-26T17:19:10.079Z,16.50
2019-05-26T17:21:40.560Z,16.50
2019-05-26T17:24:11.008Z,16.50
2019-05-26T17:26:41.502Z,16.50
2019-05-26T17:29:12.070Z,16.50
2019-05-26T17:31:42.614Z,16.40
2019-05-26T17:34:13.046Z,16.40
2019-05-26T17:36:43.482Z,16.40
2019-05-26T17:39:13.974Z,16.30
2019-05-26T17:41:44.374Z,16.20
2019-05-26T17:44:14.759Z,16.10
2019-05-26T17:46:45.215Z,16.00
2019-05-26T17:49:15.606Z,15.80
2019-05-26T17:51:46.055Z,15.70
2019-05-26T17:54:16.401Z,15.60
2019-05-26T17:56:46.820Z,15.40
2019-05-26T17:59:18.985Z,15.10
2019-05-26T18:01:49.399Z,15.10
2019-05-26T18:04:21.133Z,15.10
2019-05-26T18:06:51.577Z,15.00
2019-05-26T18:09:22.030Z,14.90
2019-05-26T18:11:52.416Z,15.00
2019-05-26T18:14:22.915Z,15.00
2019-05-26T18:16:53.589Z,14.90
2019-05-26T18:19:24.066Z,14.90
2019-05-26T18:21:54.566Z,14.80
2019-05-26T18:24:25.060Z,14.60
2019-05-26T18:26:55.593Z,14.50
2019-05-26T18:29:26.020Z,14.40
2019-05-26T18:31:56.684Z,14.30
2019-05-26T18:34:27.210Z,14.20
2019-05-26T18:36:57.886Z,14.10
2019-05-26T18:39:28.420Z,14.10
2019-05-26T18:41:58.989Z,13.90
2019-05-26T18:44:29.337Z,13.80
2019-05-26T18:46:59.840Z,13.80
2019-05-26T18:49:31.805Z,13.70
2019-05-26T18:52:04.771Z,13.60
2019-05-26T18:54:36.678Z,13.50
2019-05-26T18:57:07.150Z,13.40
2019-05-26T18:59:37.638Z,13.30
2019-05-26T19:02:08.115Z,13.20
2019-05-26T19:04:38.645Z,13.10
2019-05-26T19:07:09.383Z,12.90
2019-05-26T19:09:39.846Z,12.80
2019-05-26T19:12:10.640Z,12.80
2019-05-26T19:14:41.251Z,12.60
2019-05-26T19:17:11.829Z,12.50
2019-05-26T19:19:42.272Z,12.40
2019-05-26T19:22:13.095Z,12.40
2019-05-26T19:24:43.681Z,12.40
2019-05-26T19:30:16.360Z,12.30
2019-05-26T19:32:46.859Z,12.10
2019-05-26T19:35:19.319Z,12.00
2019-05-26T19:37:50.927Z,11.90
2019-05-26T19:40:21.644Z,11.70
2019-05-26T19:42:52.051Z,11.70
2019-05-26T19:45:23.574Z,11.60
2019-05-26T19:48:01.361Z,11.50
2019-05-26T19:50:32.672Z,11.50
2019-05-26T19:53:03.046Z,11.40
2019-05-26T19:55:33.645Z,11.40
2019-05-26T19:58:04.190Z,11.30
2019-05-26T20:00:34.771Z,11.20
2019-05-26T20:03:08.851Z,11.00
2019-05-26T20:05:39.387Z,11.00
2019-05-26T20:08:10.092Z,10.90
2019-05-26T20:10:41.863Z,10.80
2019-05-26T20:13:12.327Z,10.70
2019-05-26T20:15:42.960Z,10.60
2019-05-26T20:18:15.588Z,10.60
2019-05-26T20:20:46.059Z,10.60
2019-05-26T20:23:16.484Z,10.50
2019-05-26T20:25:48.060Z,10.40
2019-05-26T20:28:18.463Z,10.30
2019-05-26T20:30:49.025Z,10.20
2019-05-26T20:33:25.149Z,10.20
2019-05-26T20:35:58.046Z,10.10
2019-05-26T20:38:28.451Z,10.10
2019-05-26T20:40:58.667Z,10.00
2019-05-26T20:43:28.937Z,9.90
2019-05-26T20:46:00.962Z,9.90
2019-05-26T20:48:34.020Z,9.80
2019-05-26T20:51:05.946Z,9.80
2019-05-26T20:53:40.638Z,9.70
2019-05-26T20:56:11.367Z,9.60
2019-05-26T20:58:41.832Z,9.60
2019-05-26T21:01:12.331Z,9.60
2019-05-26T21:03:42.754Z,9.50
2019-05-26T21:06:15.627Z,9.40
2019-05-26T21:08:49.478Z,9.40
2019-05-26T21:11:20.776Z,9.30
2019-05-26T21:13:51.251Z,9.30
2019-05-26T21:16:24.476Z,9.30
2019-05-26T21:18:55.018Z,9.20
2019-05-26T21:21:25.478Z,9.10
2019-05-26T21:23:55.975Z,9.10
2019-05-26T21:26:26.522Z,9.00
2019-05-26T21:28:56.991Z,8.90
2019-05-26T21:31:28.225Z,8.90
2019-05-26T21:33:58.691Z,8.90
2019-05-26T21:36:29.194Z,8.90
2019-05-26T21:38:59.712Z,8.80
2019-05-26T21:41:33.827Z,8.80
2019-05-26T21:44:04.479Z,8.80
2019-05-26T21:46:36.665Z,8.70
2019-05-26T21:49:06.985Z,8.70
2019-05-26T21:51:37.402Z,8.60
2019-05-26T21:54:07.935Z,8.60
2019-05-26T21:56:41.450Z,8.60
2019-05-26T21:59:14.371Z,8.60
2019-05-26T22:01:44.809Z,8.50
2019-05-26T22:04:15.213Z,8.50
2019-05-26T22:06:46.754Z,8.50
2019-05-26T22:09:17.177Z,8.40
2019-05-26T22:11:47.561Z,8.40
2019-05-26T22:14:17.931Z,8.40
2019-05-26T22:16:48.375Z,8.30
2019-05-26T22:19:18.718Z,8.30
2019-05-26T22:21:49.371Z,8.30
2019-05-26T22:24:19.726Z,8.20
2019-05-26T22:26:50.161Z,8.20
2019-05-26T22:29:20.751Z,8.20
2019-05-26T22:31:52.240Z,8.10
2019-05-26T22:34:22.645Z,8.10
2019-05-26T22:36:52.976Z,8.10
2019-05-26T22:39:23.482Z,8.10
2019-05-26T22:41:53.905Z,8.00
2019-05-26T22:44:24.253Z,8.00
2019-05-26T22:46:54.725Z,8.00
2019-05-26T22:49:25.063Z,8.00
2019-05-26T22:51:55.549Z,8.00
2019-05-26T22:54:25.884Z,8.00
2019-05-26T22:56:56.357Z,8.00
2019-05-26T22:59:26.872Z,7.90
2019-05-26T23:01:57.575Z,7.80
2019-05-26T23:04:27.933Z,7.80
2019-05-26T23:06:58.503Z,7.80
2019-05-26T23:09:28.897Z,7.80
2019-05-26T23:11:59.346Z,7.80
2019-05-26T23:14:30.827Z,7.80
2019-05-26T23:17:01.326Z,7.70
2019-05-26T23:19:31.845Z,7.70
2019-05-26T23:22:02.206Z,7.70
2019-05-26T23:24:33.806Z,7.60
2019-05-26T23:27:04.273Z,7.60
2019-05-26T23:29:34.784Z,7.60
2019-05-26T23:32:05.282Z,7.50
2019-05-26T23:34:35.622Z,7.50
2019-05-26T23:37:06.278Z,7.50
2019-05-26T23:39:36.636Z,7.50
2019-05-26T23:42:07.171Z,7.40
2019-05-26T23:44:37.601Z,7.40
2019-05-26T23:47:08.125Z,7.40
2019-05-26T23:49:39.711Z,7.30
2019-05-26T23:52:10.106Z,7.30
2019-05-26T23:54:40.563Z,7.30
2019-05-26T23:57:10.899Z,7.30
2019-05-26T23:59:41.421Z,7.20
